Time;durP1;ratioP1;P1;durP2;ratioP2;P2;SDS_P1;SDS_P2;PMS_P1;PMS_P2;Temp;Humidity;BMP_temperature;BMP_pressure;BME280_temperature;BME280_humidity;BME280_pressure;Samples;Min_cycle;Max_cycle;Signal;HPM_P1;HPM_P2
2022/05/02 00:00:59;;;;;;;8.95;6.82;;;15.00;56.90;;;;;;5091465;28;20550;-76
2022/05/02 00:03:25;;;;;;;9.32;7.22;;;15.10;57.00;;;;;;5087654;28;20040;-75
2022/05/02 00:05:51;;;;;;;9.23;6.70;;;15.00;56.90;;;;;;5075483;28;20393;-75
2022/05/02 00:08:16;;;;;;;7.53;6.50;;;15.00;56.80;;;;;;5074037;28;20025;-75
2022/05/02 00:10:42;;;;;;;7.18;6.15;;;15.00;56.70;;;;;;5074798;28;20036;-76
2022/05/02 00:13:09;;;;;;;8.70;7.32;;;14.90;56.80;;;;;;5087763;28;20375;-74
2022/05/02 00:15:37;;;;;;;11.48;7.30;;;14.90;56.90;;;;;;5084037;28;20068;-74
2022/05/02 00:18:04;;;;;;;9.80;7.60;;;14.80;56.90;;;;;;5095528;28;20070;-75
2022/05/02 00:20:35;;;;;;;10.35;6.95;;;14.80;56.90;;;;;;5089683;28;20092;-76
2022/05/02 00:23:04;;;;;;;8.27;6.82;;;14.70;57.00;;;;;;5080376;28;20603;-76
2022/05/02 00:25:31;;;;;;;8.48;6.70;;;14.70;57.10;;;;;;5075077;28;20052;-76
2022/05/02 00:27:58;;;;;;;7.10;6.30;;;14.60;57.00;;;;;;5076353;28;20021;-76
2022/05/02 00:30:24;;;;;;;10.30;8.10;;;14.60;57.10;;;;;;5076795;28;20029;-76
2022/05/02 00:32:50;;;;;;;10.70;8.13;;;14.50;57.20;;;;;;5089755;28;20059;-76
2022/05/02 00:35:16;;;;;;;11.57;7.40;;;14.50;57.40;;;;;;5095049;28;20034;-75
2022/05/02 00:37:43;;;;;;;9.23;7.65;;;14.50;57.50;;;;;;5092989;28;20389;-76
2022/05/02 00:40:12;;;;;;;9.50;6.78;;;14.40;57.50;;;;;;5095187;28;20036;-76
2022/05/02 00:42:38;;;;;;;7.97;6.93;;;14.40;57.60;;;;;;5088388;28;20024;-76
2022/05/02 00:45:08;;;;;;;8.88;6.70;;;14.30;57.60;;;;;;5074770;28;20021;-76
2022/05/02 00:47:34;;;;;;;10.88;6.88;;;14.30;57.80;;;;;;5074709;28;20020;-76
2022/05/02 00:50:07;;;;;;;8.10;6.88;;;14.20;57.70;;;;;;5086645;28;20067;-75
2022/05/02 00:52:33;;;;;;;9.82;7.25;;;14.20;57.80;;;;;;5093953;28;20128;-75
2022/05/02 00:55:04;;;;;;;7.65;6.65;;;14.20;57.90;;;;;;5094787;28;20016;-77
2022/05/02 00:57:31;;;;;;;7.80;6.70;;;14.10;58.00;;;;;;5085977;28;20474;-75
2022/05/02 00:59:57;;;;;;;10.25;7.05;;;14.10;57.90;;;;;;5078029;28;20508;-76
2022/05/02 01:02:23;;;;;;;9.77;7.43;;;14.00;57.90;;;;;;5095002;28;20128;-75
2022/05/02 01:04:48;;;;;;;8.82;7.60;;;14.00;58.10;;;;;;5094501;28;20541;-76
2022/05/02 01:07:20;;;;;;;12.13;7.78;;;14.00;58.20;;;;;;5094376;28;20059;-76
2022/05/02 01:09:49;;;;;;;7.82;6.55;;;13.90;58.30;;;;;;5090967;28;20140;-77
2022/05/02 01:12:20;;;;;;;8.52;7.57;;;13.90;58.40;;;;;;5074330;28;20028;-75
2022/05/02 01:14:49;;;;;;;7.47;6.13;;;13.90;58.70;;;;;;5074018;28;20048;-75
2022/05/02 01:17:14;;;;;;;10.80;7.55;;;13.90;58.80;;;;;;5083905;28;20114;-76
2022/05/02 01:19:41;;;;;;;12.23;7.47;;;13.90;58.90;;;;;;5082992;28;20095;-76
2022/05/02 01:22:07;;;;;;;9.55;7.38;;;14.00;59.20;;;;;;5092910;28;20489;-76
2022/05/02 01:24:38;;;;;;;9.43;7.68;;;14.00;59.30;;;;;;5094099;28;20098;-76
2022/05/02 01:27:05;;;;;;;9.32;7.70;;;14.10;59.70;;;;;;5088912;28;20025;-75
2022/05/02 01:29:33;;;;;;;9.38;6.60;;;14.10;59.50;;;;;;5072478;28;20393;-75
2022/05/02 01:32:00;;;;;;;8.55;6.32;;;14.20;59.50;;;;;;5073829;28;20557;-76
2022/05/02 01:34:26;;;;;;;8.90;7.25;;;14.20;59.40;;;;;;5072472;28;20078;-76
2022/05/02 01:36:52;;;;;;;9.05;7.47;;;14.30;59.40;;;;;;5089572;28;20404;-76
2022/05/02 01:39:18;;;;;;;10.13;7.28;;;14.30;59.30;;;;;;5094088;28;20022;-75
2022/05/02 01:41:44;;;;;;;8.57;6.90;;;14.40;59.20;;;;;;5085642;28;20096;-76
2022/05/02 01:44:10;;;;;;;9.82;6.30;;;14.40;59.20;;;;;;5084628;28;20055;-74
2022/05/02 01:46:37;;;;;;;9.40;7.32;;;14.50;59.20;;;;;;5093802;28;20397;-76
2022/05/02 01:49:03;;;;;;;9.50;8.07;;;14.50;59.00;;;;;;5093627;28;20044;-75
2022/05/02 01:51:29;;;;;;;11.10;7.93;;;14.50;59.10;;;;;;5091077;28;20069;-76
2022/05/02 01:53:55;;;;;;;9.77;7.57;;;14.50;58.90;;;;;;5089135;28;20032;-73
2022/05/02 01:56:20;;;;;;;8.93;7.70;;;14.50;59.00;;;;;;5093540;28;20385;-74
2022/05/02 01:58:46;;;;;;;9.57;7.43;;;14.50;58.90;;;;;;5092295;28;20036;-75
2022/05/02 02:01:12;;;;;;;10.35;8.38;;;14.50;59.00;;;;;;5086000;28;20471;-76
2022/05/02 02:03:37;;;;;;;10.70;8.30;;;14.50;59.00;;;;;;5073248;28;20036;-76
2022/05/02 02:06:04;;;;;;;10.68;8.52;;;14.50;58.90;;;;;;5072176;28;20067;-76
2022/05/02 02:08:32;;;;;;;14.50;9.07;;;14.50;59.00;;;;;;5073802;28;20382;-75
2022/05/02 02:11:00;;;;;;;10.63;8.43;;;14.50;59.10;;;;;;5083150;28;20027;-75
2022/05/02 02:13:27;;;;;;;10.63;8.77;;;14.50;58.90;;;;;;5093325;28;20028;-76
2022/05/02 02:15:53;;;;;;;10.27;8.52;;;14.50;59.00;;;;;;5092131;28;20035;-76
2022/05/02 02:18:19;;;;;;;9.13;7.95;;;14.50;59.00;;;;;;5092530;28;20028;-75
2022/05/02 02:20:48;;;;;;;9.55;7.65;;;14.40;58.80;;;;;;5093253;28;20035;-76
2022/05/02 02:23:15;;;;;;;9.70;7.97;;;14.40;58.80;;;;;;5093236;28;20478;-76
2022/05/02 02:25:41;;;;;;;12.07;8.32;;;14.40;58.70;;;;;;5093216;28;20020;-75
2022/05/02 02:28:08;;;;;;;13.18;9.25;;;14.40;58.80;;;;;;5093032;28;20027;-76
2022/05/02 02:30:34;;;;;;;9.32;7.78;;;14.30;58.80;;;;;;5091898;28;20103;-76
2022/05/02 02:33:00;;;;;;;9.85;8.50;;;14.30;58.80;;;;;;5093060;28;20024;-76
2022/05/02 02:35:28;;;;;;;8.57;6.85;;;14.30;58.80;;;;;;5092159;28;20021;-75
2022/05/02 02:37:53;;;;;;;11.32;8.40;;;14.30;58.90;;;;;;5092972;28;20026;-76
2022/05/02 02:40:19;;;;;;;10.25;8.30;;;14.20;58.90;;;;;;5090229;28;20456;-75
2022/05/02 02:42:45;;;;;;;9.25;7.25;;;14.20;59.00;;;;;;5090571;28;20016;-75
2022/05/02 02:45:11;;;;;;;9.60;8.60;;;14.20;59.00;;;;;;5092933;28;20045;-76
2022/05/02 02:47:38;;;;;;;11.20;8.48;;;14.20;59.70;;;;;;5092902;28;20020;-75
2022/05/02 02:50:04;;;;;;;9.57;7.65;;;14.20;59.20;;;;;;5092786;28;20102;-76
2022/05/02 02:52:30;;;;;;;10.70;8.65;;;14.30;59.30;;;;;;5091946;28;20470;-76
2022/05/02 02:54:55;;;;;;;9.95;8.50;;;14.20;59.30;;;;;;5088018;28;20080;-76
2022/05/02 02:57:21;;;;;;;9.50;8.30;;;14.30;59.50;;;;;;5092366;28;20020;-77
2022/05/02 02:59:47;;;;;;;9.55;8.55;;;14.30;59.60;;;;;;5092373;28;20040;-76
2022/05/02 03:02:13;;;;;;;11.90;9.48;;;14.30;59.50;;;;;;5081600;28;20031;-75
2022/05/02 03:07:26;;;;;;;12.20;9.77;;;14.30;59.60;;;;;;5074913;28;20390;-76
2022/05/02 03:09:52;;;;;;;12.00;9.27;;;14.40;59.70;;;;;;5076852;28;20028;-75
2022/05/02 03:12:19;;;;;;;14.38;9.30;;;14.40;59.70;;;;;;5086505;28;20024;-75
2022/05/02 03:14:45;;;;;;;11.88;9.15;;;14.40;59.80;;;;;;5095323;28;20027;-74
2022/05/02 03:17:11;;;;;;;11.80;8.82;;;14.30;59.70;;;;;;5096517;28;20385;-75
2022/05/02 03:19:37;;;;;;;12.57;9.65;;;14.30;59.70;;;;;;5096385;28;20116;-75
2022/05/02 03:22:03;;;;;;;12.05;9.40;;;14.40;59.70;;;;;;5096444;28;20035;-75
2022/05/02 03:24:29;;;;;;;12.77;9.50;;;14.40;59.70;;;;;;5096500;28;20024;-75
2022/05/02 03:26:55;;;;;;;9.63;8.30;;;14.40;59.70;;;;;;5094910;28;20485;-75
2022/05/02 03:29:20;;;;;;;13.43;9.93;;;14.40;59.80;;;;;;5077957;28;20039;-75
2022/05/02 03:31:46;;;;;;;14.40;11.75;;;14.40;60.00;;;;;;5090415;28;20423;-76
2022/05/02 03:34:12;;;;;;;13.02;10.52;;;14.40;60.20;;;;;;5096785;28;20028;-75
2022/05/02 03:36:38;;;;;;;15.27;11.27;;;14.50;60.10;;;;;;5082965;28;20051;-74
2022/05/02 03:39:05;;;;;;;14.82;10.60;;;14.50;60.00;;;;;;5091887;28;20434;-75
2022/05/02 03:41:31;;;;;;;11.95;9.95;;;14.50;60.00;;;;;;5096203;28;20462;-76
2022/05/02 03:43:57;;;;;;;12.68;10.25;;;14.50;59.90;;;;;;5096246;28;20056;-75
2022/05/02 03:46:24;;;;;;;11.10;9.55;;;14.50;59.80;;;;;;5096128;28;20512;-75
2022/05/02 03:48:49;;;;;;;19.15;11.65;;;14.60;59.80;;;;;;5094746;28;20115;-75
2022/05/02 03:51:15;;;;;;;16.13;11.93;;;14.50;59.90;;;;;;5095964;28;20047;-76
2022/05/02 03:53:41;;;;;;;13.85;11.18;;;14.50;59.90;;;;;;5084290;28;20043;-75
2022/05/02 03:56:07;;;;;;;16.45;12.65;;;14.60;60.00;;;;;;5075673;28;20024;-75
2022/05/02 03:58:33;;;;;;;16.70;12.38;;;14.60;60.20;;;;;;5075568;28;20474;-75
2022/05/02 04:00:58;;;;;;;14.40;11.00;;;14.60;60.20;;;;;;5090003;28;20051;-75
2022/05/02 04:03:24;;;;;;;15.73;10.75;;;14.60;60.00;;;;;;5076323;28;20024;-76
2022/05/02 04:05:50;;;;;;;12.30;10.05;;;14.60;60.00;;;;;;5088177;28;20508;-75
2022/05/02 04:08:16;;;;;;;16.55;12.13;;;14.60;59.90;;;;;;5074290;28;20036;-75
2022/05/02 04:10:41;;;;;;;15.35;12.60;;;14.60;59.80;;;;;;5074266;28;20385;-76
2022/05/02 04:13:08;;;;;;;14.93;11.95;;;14.60;59.80;;;;;;5074193;28;20389;-75
2022/05/02 04:15:34;;;;;;;26.73;20.98;;;14.60;59.80;;;;;;5074072;28;20385;-75
2022/05/02 04:18:00;;;;;;;21.20;15.10;;;14.60;59.90;;;;;;5072279;28;20028;-75
2022/05/02 04:20:26;;;;;;;15.30;12.70;;;14.60;60.00;;;;;;5074813;28;20134;-75
2022/05/02 04:22:51;;;;;;;19.08;12.02;;;14.50;60.00;;;;;;5073910;28;20098;-75
2022/05/02 04:25:17;;;;;;;15.50;11.45;;;14.50;60.20;;;;;;5073917;28;20024;-76
2022/05/02 04:27:43;;;;;;;17.27;12.68;;;14.50;60.20;;;;;;5073941;28;20028;-76
2022/05/02 04:30:10;;;;;;;16.60;12.90;;;14.60;60.40;;;;;;5073820;28;20036;-75
2022/05/02 04:32:37;;;;;;;21.08;12.23;;;14.60;60.60;;;;;;5074124;28;20028;-76
2022/05/02 04:35:04;;;;;;;16.65;12.38;;;14.60;60.50;;;;;;5080305;28;20099;-76
2022/05/02 04:37:30;;;;;;;15.73;12.23;;;14.60;60.60;;;;;;5094052;28;20027;-76
2022/05/02 04:39:55;;;;;;;15.82;12.50;;;14.70;60.60;;;;;;5093953;28;20032;-75
2022/05/02 04:42:21;;;;;;;19.80;12.80;;;14.70;60.50;;;;;;5092394;28;20128;-75
2022/05/02 04:44:47;;;;;;;21.83;12.88;;;14.70;60.40;;;;;;5093826;28;20028;-76
2022/05/02 04:47:13;;;;;;;17.77;13.38;;;14.70;60.30;;;;;;5093925;28;20024;-76
2022/05/02 04:49:39;;;;;;;20.92;15.05;;;14.70;60.30;;;;;;5092920;28;20435;-75
2022/05/02 04:52:05;;;;;;;20.08;14.63;;;14.70;60.50;;;;;;5079757;28;20111;-75
2022/05/02 04:54:31;;;;;;;19.65;14.50;;;14.70;60.50;;;;;;5073451;28;20099;-75
2022/05/02 04:56:56;;;;;;;17.45;13.20;;;14.70;60.50;;;;;;5072193;28;20139;-75
2022/05/02 04:59:22;;;;;;;17.48;13.52;;;14.80;60.60;;;;;;5031467;28;1198855;-76
2022/05/02 05:01:48;;;;;;;17.55;13.82;;;14.80;60.70;;;;;;5073392;28;20016;-75
2022/05/02 05:04:14;;;;;;;19.67;12.70;;;14.80;60.80;;;;;;5074337;28;20024;-76
2022/05/02 05:06:40;;;;;;;16.65;12.00;;;14.90;60.90;;;;;;5074277;28;20025;-74
2022/05/02 05:09:06;;;;;;;15.32;12.55;;;15.00;60.90;;;;;;5072863;28;20122;-76
2022/05/02 05:12:25;;;;;;;16.55;12.73;;;15.00;60.90;;;;;;5074153;28;20024;-76
2022/05/02 05:18:18;;;;;;;15.55;12.90;;;15.20;60.70;;;;;;5051012;28;20032;-75
2022/05/02 05:20:56;;;;;;;16.77;13.63;;;15.30;60.50;;;;;;5051649;28;20029;-76
2022/05/02 05:23:39;;;;;;;16.83;12.80;;;15.40;60.40;;;;;;5051719;28;20142;-76
2022/05/02 05:26:07;;;;;;;19.20;12.63;;;15.50;60.30;;;;;;5051787;28;20429;-75
2022/05/02 05:28:48;;;;;;;16.23;12.27;;;15.60;60.20;;;;;;5034391;28;20105;-76
2022/05/02 05:31:20;;;;;;;20.67;13.20;;;15.60;60.00;;;;;;5051495;28;20364;-76
2022/05/02 05:34:05;;;;;;;15.98;11.65;;;15.70;60.00;;;;;;5051411;28;20502;-75
2022/05/02 05:37:08;;;;;;;17.85;12.73;;;15.80;59.90;;;;;;5051538;28;20044;-74
2022/05/02 05:39:44;;;;;;;17.85;14.20;;;16.00;59.90;;;;;;5051079;28;20033;-75
2022/05/02 05:42:13;;;;;;;19.33;15.02;;;16.10;59.50;;;;;;5051517;28;20490;-75
2022/05/02 05:44:41;;;;;;;18.23;14.35;;;16.20;58.90;;;;;;5050008;28;20033;-75
2022/05/02 05:47:28;;;;;;;17.63;14.05;;;16.30;58.80;;;;;;5051445;28;20094;-75
2022/05/02 05:50:16;;;;;;;15.15;13.38;;;16.40;58.40;;;;;;5069998;28;20509;-75
2022/05/02 05:53:00;;;;;;;22.92;16.75;;;16.60;57.90;;;;;;5072072;28;20029;-75
2022/05/02 05:55:26;;;;;;;;;;;16.60;57.40;;;;;;5073713;28;20070;-75
2022/05/02 05:58:10;;;;;;;20.45;14.23;;;16.70;57.80;;;;;;5073085;28;19904;-76
2022/05/02 06:00:45;;;;;;;17.88;14.57;;;16.80;57.00;;;;;;5072869;28;20044;-76
2022/05/02 06:03:15;;;;;;;18.58;15.73;;;16.80;57.00;;;;;;5073006;28;20021;-76
2022/05/02 06:05:43;;;;;;;19.42;14.20;;;16.90;56.90;;;;;;5092775;28;20020;-76
2022/05/02 06:08:16;;;;;;;16.77;13.70;;;17.10;56.90;;;;;;5092128;28;20058;-75
2022/05/02 06:10:43;;;;;;;22.13;14.68;;;17.20;56.60;;;;;;5082935;28;20032;-74
2022/05/02 06:13:09;;;;;;;17.40;14.13;;;17.30;56.20;;;;;;5076303;28;20028;-75
2022/05/02 06:18:35;;;;;;;16.35;13.30;;;17.50;55.60;;;;;;5079779;28;20496;-74
2022/05/02 06:21:06;;;;;;;16.92;13.57;;;17.60;55.50;;;;;;5074618;28;20024;-75
2022/05/02 06:23:41;;;;;;;15.63;11.73;;;17.70;55.30;;;;;;5097441;28;20120;-76
2022/05/02 06:26:08;;;;;;;16.98;13.25;;;17.80;55.20;;;;;;5073396;28;20033;-76
2022/05/02 06:28:40;;;;;;;17.60;13.30;;;17.90;55.00;;;;;;5089598;28;20386;-74
2022/05/02 06:31:13;;;;;;;15.75;11.80;;;17.90;54.70;;;;;;5089724;28;20019;-74
2022/05/02 06:33:41;;;;;;;12.60;11.15;;;18.00;54.80;;;;;;5091787;28;20028;-76
2022/05/02 06:36:48;;;;;;;17.17;13.50;;;18.10;55.00;;;;;;5093119;28;20099;-75
2022/05/02 06:39:43;;;;;;;16.20;13.13;;;18.20;54.80;;;;;;5091268;28;20036;-75
2022/05/02 06:43:01;;;;;;;19.83;15.30;;;18.30;54.60;;;;;;5092886;28;20031;-76
2022/05/02 06:45:39;;;;;;;17.58;12.77;;;18.40;54.10;;;;;;5076665;28;20111;-75
2022/05/02 06:48:36;;;;;;;21.40;13.23;;;18.50;54.40;;;;;;5093031;28;20028;-75
2022/05/02 06:51:06;;;;;;;19.38;13.35;;;18.60;53.70;;;;;;5069503;28;20044;-75
2022/05/02 06:54:09;;;;;;;18.48;14.52;;;18.60;53.40;;;;;;5072646;28;20543;-76
2022/05/02 06:57:24;;;;;;;21.35;15.82;;;18.70;53.10;;;;;;5073748;28;20050;-75
2022/05/02 06:59:55;;;;;;;21.35;14.65;;;18.70;52.90;;;;;;4990783;28;20082;-75
2022/05/02 07:02:34;;;;;;;33.25;16.63;;;18.70;52.80;;;;;;5002930;28;20037;-74
2022/05/02 07:05:10;;;;;;;25.83;14.30;;;18.80;52.70;;;;;;5035513;28;20037;-74
2022/05/02 07:07:52;;;;;;;27.63;17.58;;;18.80;52.70;;;;;;5052587;28;20021;-73
2022/05/02 07:10:26;;;;;;;21.63;17.20;;;18.80;52.40;;;;;;5052532;28;20025;-74
2022/05/02 07:13:25;;;;;;;22.85;15.43;;;18.80;51.80;;;;;;5052396;28;20393;-74
2022/05/02 07:16:10;;;;;;;20.65;16.95;;;18.80;51.90;;;;;;5059182;28;20043;-74
2022/05/02 07:18:43;;;;;;;22.63;16.50;;;18.80;52.00;;;;;;5052426;28;20025;-75
2022/05/02 07:21:27;;;;;;;25.77;17.80;;;18.80;52.10;;;;;;5052363;28;20593;-74
2022/05/02 07:23:59;;;;;;;21.65;15.20;;;18.80;52.10;;;;;;5052341;28;20029;-75
2022/05/02 07:26:29;;;;;;;21.55;14.30;;;18.80;52.20;;;;;;5052640;28;20079;-75
2022/05/02 07:28:59;;;;;;;22.58;14.80;;;18.80;51.80;;;;;;5052544;28;20510;-75
2022/05/02 07:31:25;;;;;;;16.85;12.63;;;18.80;51.90;;;;;;5052181;28;20017;-75
2022/05/02 07:33:53;;;;;;;18.80;13.52;;;18.90;52.00;;;;;;5060220;28;20024;-75
2022/05/02 07:36:24;;;;;;;14.05;10.65;;;18.90;51.60;;;;;;5063978;28;20382;-75
2022/05/02 07:39:12;;;;;;;15.98;10.95;;;18.90;51.40;;;;;;5070775;28;20032;-77
2022/05/02 07:41:39;;;;;;;12.57;9.82;;;19.00;51.30;;;;;;5064136;28;20059;-74
2022/05/02 07:44:07;;;;;;;13.13;10.43;;;19.00;51.20;;;;;;5054237;28;20078;-73
2022/05/02 07:46:43;;;;;;;15.23;10.07;;;19.00;50.60;;;;;;5067813;28;20370;-75
2022/05/02 07:49:11;;;;;;;13.20;9.65;;;19.10;50.70;;;;;;5066904;28;20123;-74
2022/05/02 07:51:46;;;;;;;12.05;10.05;;;19.20;50.80;;;;;;5066792;28;20045;-74
2022/05/02 07:54:23;;;;;;;10.57;7.40;;;19.20;50.70;;;;;;5060354;28;20028;-74
2022/05/02 07:56:51;;;;;;;11.90;8.05;;;19.30;50.50;;;;;;5070403;28;20012;-74
2022/05/02 07:59:20;;;;;;;11.30;8.45;;;19.40;50.10;;;;;;5076699;28;20020;-75
2022/05/02 08:01:46;;;;;;;9.68;8.18;;;19.40;49.60;;;;;;5081979;28;20020;-75
2022/05/02 08:04:13;;;;;;;9.40;7.68;;;19.50;49.70;;;;;;5083507;28;20081;-76
2022/05/02 08:06:48;;;;;;;11.70;7.68;;;19.40;49.80;;;;;;5094632;28;20034;-75
2022/05/02 08:09:38;;;;;;;15.70;8.43;;;19.50;49.90;;;;;;5089588;28;20469;-74
2022/05/02 08:12:22;;;;;;;11.45;7.95;;;19.50;50.00;;;;;;5083603;28;20024;-75
2022/05/02 08:15:08;;;;;;;11.52;8.98;;;19.60;50.30;;;;;;5086568;28;20027;-74
2022/05/02 08:17:47;;;;;;;12.60;8.57;;;19.70;49.80;;;;;;5079712;28;20070;-74
2022/05/02 08:20:35;;;;;;;10.95;8.25;;;19.90;49.50;;;;;;5093621;28;20590;-74
2022/05/02 08:29:43;;;;;;;13.25;9.50;;;20.80;48.70;;;;;;5093580;28;20034;-74
2022/05/02 08:32:19;;;;;;;13.55;8.93;;;21.10;48.50;;;;;;5093795;28;20547;-75
2022/05/02 08:34:52;;;;;;;14.23;9.98;;;21.40;47.20;;;;;;5089807;28;20485;-75
2022/05/02 08:37:36;;;;;;;14.25;10.10;;;21.70;46.40;;;;;;5083559;28;20475;-75
2022/05/02 08:40:04;;;;;;;16.63;12.07;;;21.90;46.40;;;;;;5078613;28;20032;-75
2022/05/02 08:43:01;;;;;;;17.15;11.95;;;22.10;45.50;;;;;;5086759;28;20039;-75
2022/05/02 08:45:34;;;;;;;19.92;10.75;;;22.30;45.20;;;;;;5093821;28;20103;-74
2022/05/02 08:48:00;;;;;;;;;;;22.50;45.00;;;;;;5090337;28;20028;-75
2022/05/02 08:50:54;;;;;;;10.48;8.07;;;22.70;46.60;;;;;;5090938;28;19965;-75
2022/05/02 08:53:37;;;;;;;8.45;6.32;;;22.80;43.70;;;;;;5092258;28;20109;-75
2022/05/02 08:56:12;;;;;;;6.97;5.93;;;23.00;42.60;;;;;;5084227;28;20012;-74
2022/05/02 08:59:03;;;;;;;8.52;6.30;;;23.20;41.90;;;;;;5090136;28;20021;-74
2022/05/02 09:01:56;;;;;;;10.18;8.65;;;23.30;42.10;;;;;;5078209;28;20155;-75
2022/05/02 09:04:49;;;;;;;11.15;9.15;;;23.50;42.30;;;;;;5088743;28;20032;-75
2022/05/02 09:07:50;;;;;;;11.43;9.40;;;23.60;41.30;;;;;;5093407;28;20028;-75
2022/05/02 09:10:25;;;;;;;10.80;9.63;;;23.70;41.40;;;;;;5086777;28;20044;-74
2022/05/02 09:13:16;;;;;;;14.77;9.50;;;23.90;41.10;;;;;;5089533;28;20031;-75
2022/05/02 09:15:54;;;;;;;10.27;9.18;;;24.00;40.90;;;;;;5079653;28;20099;-75
2022/05/02 09:18:32;;;;;;;19.45;9.77;;;24.10;41.00;;;;;;5085270;28;20035;-75
2022/05/02 09:21:16;;;;;;;12.32;10.20;;;24.20;40.30;;;;;;5094289;28;20095;-76
2022/05/02 09:23:54;;;;;;;11.93;10.63;;;24.30;39.90;;;;;;5077914;28;20093;-76
2022/05/02 09:26:32;;;;;;;10.77;9.23;;;24.30;39.70;;;;;;5074451;28;20017;-75
2022/05/02 09:29:16;;;;;;;12.02;9.73;;;24.30;39.90;;;;;;5074068;28;20071;-75
2022/05/02 09:32:07;;;;;;;13.82;11.07;;;24.30;39.50;;;;;;5080349;28;20020;-75
2022/05/02 09:34:53;;;;;;;15.27;13.02;;;24.40;39.70;;;;;;5083482;28;20028;-76
2022/05/02 09:37:35;;;;;;;15.13;12.45;;;24.40;39.40;;;;;;5092435;28;20031;-74
2022/05/02 09:40:16;;;;;;;19.85;14.10;;;24.50;39.50;;;;;;5091558;28;20024;-75
2022/05/02 09:43:05;;;;;;;16.90;11.90;;;24.60;38.80;;;;;;5077646;28;20095;-75
2022/05/02 09:51:47;;;;;;;24.83;12.55;;;24.90;38.10;;;;;;5093821;28;20032;-70
2022/05/02 09:57:22;;;;;;;16.58;11.40;;;25.00;37.60;;;;;;5082256;28;20056;-74
2022/05/02 09:59:49;;;;;;;15.25;11.05;;;25.00;37.10;;;;;;5084284;28;20044;-75
2022/05/02 10:02:23;;;;;;;14.30;10.40;;;25.10;37.10;;;;;;5087085;28;20111;-75
2022/05/02 10:05:07;;;;;;;13.23;10.23;;;25.10;37.10;;;;;;5082005;28;20023;-75
2022/05/02 10:07:56;;;;;;;17.00;10.73;;;25.20;37.00;;;;;;5089511;28;20032;-75
2022/05/02 10:10:32;;;;;;;13.30;10.02;;;25.20;37.50;;;;;;5062130;28;20397;-73
2022/05/02 10:13:48;;;;;;;13.70;10.75;;;25.30;36.50;;;;;;5088829;28;20027;-74
2022/05/02 10:16:26;;;;;;;11.30;9.63;;;25.30;36.30;;;;;;5010482;28;20242;-74
2022/05/02 10:19:34;;;;;;;12.77;10.35;;;25.40;36.60;;;;;;4994108;28;20057;-74
2022/05/02 10:22:19;;;;;;;15.00;9.48;;;25.50;36.20;;;;;;4954577;28;20078;-72
2022/05/02 10:25:03;;;;;;;10.48;9.10;;;25.60;35.50;;;;;;5010928;28;20108;-73
2022/05/02 10:27:44;;;;;;;11.30;8.35;;;25.60;35.90;;;;;;5010807;28;20108;-74
2022/05/02 10:30:14;;;;;;;11.38;8.43;;;25.70;35.10;;;;;;5010580;28;20118;-76
2022/05/02 10:32:55;;;;;;;8.85;6.85;;;25.70;33.90;;;;;;5010102;28;20072;-73
2022/05/02 10:35:26;;;;;;;8.10;6.78;;;25.70;33.70;;;;;;4992030;28;20037;-73
2022/05/02 10:38:02;;;;;;;11.32;7.72;;;25.60;34.10;;;;;;5005209;28;20026;-73
2022/05/02 10:40:37;;;;;;;8.70;7.40;;;25.50;33.80;;;;;;5009897;28;20033;-74
2022/05/02 10:43:07;;;;;;;10.20;8.15;;;25.50;33.90;;;;;;5010176;28;20113;-75
2022/05/02 10:45:38;;;;;;;8.93;8.00;;;25.50;33.60;;;;;;5010561;28;20530;-74
2022/05/02 10:48:15;;;;;;;8.63;7.55;;;25.40;34.00;;;;;;5010467;28;20041;-74
2022/05/02 10:50:50;;;;;;;8.00;6.78;;;25.40;34.60;;;;;;5055140;28;20036;-74
2022/05/02 10:53:49;;;;;;;9.60;6.85;;;25.40;34.50;;;;;;5088957;28;20012;-73
2022/05/02 10:56:34;;;;;;;6.57;5.82;;;25.50;34.40;;;;;;5082903;28;20024;-75
2022/05/02 10:59:05;;;;;;;7.78;5.60;;;25.60;34.60;;;;;;5078536;28;20519;-74
2022/05/02 11:02:22;;;;;;;9.95;6.63;;;25.80;34.30;;;;;;5092437;28;20040;-74
2022/05/02 11:05:06;;;;;;;6.07;5.47;;;25.90;34.00;;;;;;5037527;28;20052;-74
2022/05/02 11:07:44;;;;;;;7.63;6.65;;;26.10;33.60;;;;;;5040506;28;20049;-73
2022/05/02 11:10:14;;;;;;;6.32;5.43;;;26.30;32.50;;;;;;5028553;28;20116;-73
2022/05/02 11:13:00;;;;;;;8.82;6.28;;;26.40;32.80;;;;;;5049419;28;20108;-74
2022/05/02 11:15:52;;;;;;;7.60;4.95;;;26.60;32.40;;;;;;5049724;28;20188;-74
2022/05/02 11:21:55;;;;;;;14.68;6.25;;;26.80;31.60;;;;;;5060539;28;20044;-74
2022/05/02 11:24:36;;;;;;;9.68;5.88;;;26.80;32.20;;;;;;5032064;28;20108;-74
2022/05/02 11:27:22;;;;;;;4.90;4.40;;;26.80;31.70;;;;;;5041035;28;20552;-74
2022/05/02 11:30:09;;;;;;;6.30;4.93;;;26.90;31.00;;;;;;5046495;28;20033;-75
2022/05/02 11:32:50;;;;;;;7.50;5.70;;;26.90;31.80;;;;;;5036623;28;20021;-74
2022/05/02 11:35:40;;;;;;;7.72;5.68;;;27.00;31.50;;;;;;5053673;28;20029;-74
2022/05/02 11:38:44;;;;;;;9.95;6.22;;;27.10;31.20;;;;;;5048836;28;20032;-74
2022/05/02 11:41:18;;;;;;;6.40;5.05;;;27.10;30.70;;;;;;5081276;28;20397;-76
2022/05/02 11:43:45;;;;;;;7.28;6.03;;;27.20;30.30;;;;;;5088393;28;20021;-76
2022/05/02 11:46:24;;;;;;;7.50;5.55;;;27.20;30.10;;;;;;5086901;28;20440;-75
2022/05/02 11:49:09;;;;;;;7.45;6.15;;;27.30;30.10;;;;;;5080257;28;20081;-75
2022/05/02 11:51:50;;;;;;;11.35;5.82;;;27.30;30.10;;;;;;5094445;28;20470;-73
2022/05/02 11:54:26;;;;;;;10.50;5.95;;;27.40;30.00;;;;;;5080931;28;20073;-74
2022/05/02 11:57:02;;;;;;;15.77;6.15;;;27.50;29.90;;;;;;5079227;28;20064;-75
2022/05/02 11:59:55;;;;;;;14.05;7.57;;;27.70;29.60;;;;;;5095444;28;20051;-75
2022/05/02 12:02:36;;;;;;;8.88;5.47;;;27.70;29.10;;;;;;5090532;28;20035;-74
2022/05/02 12:05:25;;;;;;;9.23;5.90;;;27.70;28.90;;;;;;5095468;28;20073;-76
2022/05/02 12:08:10;;;;;;;10.77;4.93;;;27.60;28.60;;;;;;5073654;28;20449;-74
2022/05/02 12:10:45;;;;;;;6.75;5.80;;;27.70;29.10;;;;;;5094535;28;20063;-75
2022/05/02 12:13:18;;;;;;;7.25;5.30;;;27.70;28.80;;;;;;5089458;28;20056;-74
2022/05/02 12:16:03;;;;;;;8.20;5.47;;;27.70;28.90;;;;;;5083388;28;20017;-75
2022/05/02 12:18:47;;;;;;;7.25;4.53;;;27.60;28.50;;;;;;5093267;28;20034;-75
2022/05/02 12:21:42;;;;;;;9.23;5.35;;;27.50;28.50;;;;;;5075296;28;20051;-75
2022/05/02 12:24:26;;;;;;;10.85;5.55;;;27.40;28.30;;;;;;5088946;28;20028;-74
2022/05/02 12:26:53;;;;;;;6.65;4.70;;;27.30;28.20;;;;;;5094269;28;20030;-76
2022/05/02 12:29:20;;;;;;;6.80;3.72;;;27.20;28.70;;;;;;5095364;28;20099;-75
2022/05/02 12:31:58;;;;;;;7.70;3.05;;;27.10;28.30;;;;;;5094315;28;20035;-76
2022/05/02 12:34:36;;;;;;;6.22;3.33;;;27.00;28.20;;;;;;5094886;28;20397;-75
2022/05/02 12:37:30;;;;;;;5.88;2.50;;;27.00;28.60;;;;;;5095173;28;20020;-73
2022/05/02 12:40:12;;;;;;;3.35;1.80;;;26.90;28.20;;;;;;5072308;28;20040;-75
2022/05/02 12:42:55;;;;;;;2.95;2.08;;;26.90;27.50;;;;;;5078098;28;20508;-75
2022/05/02 12:45:23;;;;;;;2.22;1.75;;;26.80;27.40;;;;;;5074043;28;20033;-75
2022/05/02 12:47:56;;;;;;;4.88;2.20;;;26.80;26.80;;;;;;5085969;28;20046;-74
2022/05/02 12:50:25;;;;;;;5.05;2.58;;;26.70;27.10;;;;;;5074869;28;20017;-74
2022/05/02 12:52:56;;;;;;;3.70;2.17;;;26.70;27.10;;;;;;5084730;28;20042;-74
2022/05/02 12:55:23;;;;;;;2.92;1.80;;;26.70;27.70;;;;;;5081798;28;20020;-75
2022/05/02 13:00:41;;;;;;;4.93;2.30;;;26.60;27.40;;;;;;5086252;28;20464;-75
2022/05/02 13:03:10;;;;;;;6.30;2.45;;;26.60;27.50;;;;;;5090816;28;20048;-74
2022/05/02 13:05:49;;;;;;;4.63;2.38;;;26.50;27.20;;;;;;5078541;28;20025;-74
2022/05/02 13:08:19;;;;;;;3.70;2.00;;;26.60;27.50;;;;;;5086648;28;20036;-75
2022/05/02 13:10:52;;;;;;;4.70;2.75;;;26.60;27.30;;;;;;5099890;28;20028;-74
2022/05/02 13:13:21;;;;;;;;;;;26.50;27.10;;;;;;5088560;28;20016;-74
2022/05/02 13:15:50;;;;;;;2.35;1.80;;;26.50;28.30;;;;;;5089203;28;19930;-76
2022/05/02 13:18:20;;;;;;;6.30;2.47;;;26.50;27.10;;;;;;5085575;28;20027;-74
2022/05/02 13:21:10;;;;;;;3.70;2.30;;;26.50;26.80;;;;;;5090012;28;20102;-75
2022/05/02 13:23:48;;;;;;;12.18;2.55;;;26.50;27.30;;;;;;5082781;28;20008;-74
2022/05/02 13:26:22;;;;;;;9.60;2.40;;;26.40;27.20;;;;;;5093229;28;20016;-74
2022/05/02 13:28:49;;;;;;;6.85;4.63;;;26.40;27.10;;;;;;5093597;28;20030;-75
2022/05/02 13:31:25;;;;;;;4.45;2.80;;;26.40;27.00;;;;;;5093636;28;20065;-74
2022/05/02 13:33:53;;;;;;;9.00;6.63;;;26.40;26.40;;;;;;5093720;28;20069;-75
2022/05/02 13:36:24;;;;;;;7.05;3.65;;;26.40;26.50;;;;;;5092260;28;20024;-74
2022/05/02 13:39:08;;;;;;;7.22;4.20;;;26.60;26.80;;;;;;5088631;28;20036;-75
2022/05/02 13:41:40;;;;;;;4.22;2.70;;;26.80;26.90;;;;;;5078715;28;20020;-73
2022/05/02 13:44:32;;;;;;;5.65;2.70;;;26.90;26.50;;;;;;5084664;28;20020;-74